createdAt,value
2024-03-14T00:01:07.822Z,11.65
2024-03-14T00:03:38.653Z,9.55
2024-03-14T00:06:08.169Z,14.27
2024-03-14T00:08:38.639Z,11.95
2024-03-14T00:11:07.857Z,10.32
2024-03-14T00:13:37.030Z,13.25
2024-03-14T00:16:06.486Z,15.98
2024-03-14T00:18:36.937Z,13.40
2024-03-14T00:21:11.466Z,12.57
2024-03-14T00:23:43.383Z,10.07
2024-03-14T00:26:13.840Z,16.95
2024-03-14T00:28:42.890Z,10.25
2024-03-14T00:31:13.821Z,12.02
2024-03-14T00:33:44.848Z,12.65
2024-03-14T00:36:16.315Z,8.27
2024-03-14T00:38:45.565Z,8.57
2024-03-14T00:41:16.175Z,14.20
2024-03-14T00:43:45.277Z,10.95
2024-03-14T00:46:15.998Z,13.10
2024-03-14T00:48:46.509Z,13.63
2024-03-14T00:51:15.963Z,17.20
2024-03-14T00:53:45.030Z,14.57
2024-03-14T00:56:14.159Z,12.35
2024-03-14T00:58:43.414Z,11.55
2024-03-14T01:01:12.535Z,10.07
2024-03-14T01:03:41.595Z,14.93
2024-03-14T01:06:12.529Z,14.82
2024-03-14T01:08:42.868Z,12.23
2024-03-14T01:11:11.915Z,11.65
2024-03-14T01:13:40.962Z,11.68
2024-03-14T01:16:10.109Z,15.90
2024-03-14T01:18:41.069Z,10.38
2024-03-14T01:21:11.275Z,14.98
2024-03-14T01:23:40.349Z,16.63
2024-03-14T01:26:09.818Z,10.80
2024-03-14T01:28:38.873Z,17.95
2024-03-14T01:31:08.199Z,17.98
2024-03-14T01:33:37.591Z,19.13
2024-03-14T01:36:06.992Z,15.82
2024-03-14T01:38:39.185Z,16.75
2024-03-14T01:41:18.265Z,17.17
2024-03-14T01:43:59.425Z,14.25
2024-03-14T01:46:29.647Z,13.98
2024-03-14T01:48:58.901Z,16.35
2024-03-14T01:51:28.220Z,13.88
2024-03-14T01:53:57.778Z,16.85
2024-03-14T01:56:28.168Z,16.08
2024-03-14T01:58:57.254Z,16.40
2024-03-14T02:01:26.428Z,16.35
2024-03-14T02:03:55.760Z,12.85
2024-03-14T02:06:24.930Z,14.20
2024-03-14T02:08:54.089Z,13.43
2024-03-14T02:11:23.565Z,15.98
2024-03-14T02:13:52.777Z,16.92
2024-03-14T02:16:22.121Z,15.15
2024-03-14T02:19:11.830Z,18.00
2024-03-14T02:21:41.917Z,18.33
2024-03-14T02:24:11.010Z,15.88
2024-03-14T02:26:43.475Z,18.88
2024-03-14T02:29:12.915Z,16.60
2024-03-14T02:31:41.974Z,19.80
2024-03-14T02:34:11.372Z,16.70
2024-03-14T02:36:40.445Z,15.77
2024-03-14T02:39:11.513Z,23.33
2024-03-14T02:41:40.691Z,17.90
2024-03-14T02:44:17.008Z,21.00
2024-03-14T02:46:46.277Z,25.38
2024-03-14T02:49:15.533Z,14.07
2024-03-14T02:51:46.639Z,22.25
2024-03-14T02:54:16.954Z,20.45
2024-03-14T02:56:48.466Z,16.98
2024-03-14T02:59:17.894Z,19.17
2024-03-14T03:01:47.457Z,15.63
2024-03-14T03:04:17.188Z,23.50
2024-03-14T03:06:50.129Z,17.83
2024-03-14T03:09:19.555Z,25.15
2024-03-14T03:11:48.698Z,18.42
2024-03-14T03:14:17.794Z,20.55
2024-03-14T03:16:46.813Z,21.55
2024-03-14T03:19:15.952Z,18.58
2024-03-14T03:21:45.532Z,29.20
2024-03-14T03:24:14.094Z,27.70
2024-03-14T03:26:43.507Z,24.15
2024-03-14T03:29:14.119Z,25.95
2024-03-14T03:31:43.565Z,29.63
2024-03-14T03:34:12.583Z,28.85
2024-03-14T03:36:40.933Z,26.13
2024-03-14T03:39:14.029Z,22.88
2024-03-14T03:41:42.440Z,23.63
2024-03-14T03:44:11.551Z,22.25
2024-03-14T03:46:44.397Z,24.92
2024-03-14T03:49:13.898Z,27.42
2024-03-14T03:51:42.010Z,24.60
2024-03-14T03:54:11.106Z,25.85
2024-03-14T03:56:39.966Z,19.00
2024-03-14T03:59:09.545Z,21.17
2024-03-14T04:01:37.822Z,24.73
2024-03-14T04:04:07.150Z,20.58
2024-03-14T04:06:35.320Z,25.30
2024-03-14T04:09:05.627Z,26.08
2024-03-14T04:11:34.801Z,25.83
2024-03-14T04:14:03.954Z,25.08
2024-03-14T04:16:33.913Z,26.92
2024-03-14T04:19:04.296Z,27.60
2024-03-14T04:21:33.489Z,26.35
2024-03-14T04:24:02.763Z,27.35
2024-03-14T04:26:32.228Z,31.08
2024-03-14T04:29:02.352Z,27.77
2024-03-14T04:31:33.741Z,30.45
2024-03-14T04:34:06.192Z,32.72
2024-03-14T04:36:38.898Z,27.90
2024-03-14T04:39:10.421Z,34.70
2024-03-14T04:41:40.275Z,24.02
2024-03-14T04:44:11.053Z,33.83
2024-03-14T04:46:43.278Z,26.83
2024-03-14T04:49:13.687Z,30.60
2024-03-14T04:51:42.832Z,40.22
2024-03-14T04:54:11.993Z,25.77
2024-03-14T04:56:41.685Z,31.48
2024-03-14T04:59:11.011Z,35.10
2024-03-14T05:01:40.241Z,37.63
2024-03-14T05:04:10.969Z,38.65
2024-03-14T05:06:40.509Z,32.95
2024-03-14T05:09:11.594Z,34.42
2024-03-14T05:11:41.083Z,32.47
2024-03-14T05:14:10.224Z,36.17
2024-03-14T05:16:41.372Z,31.92
2024-03-14T05:19:10.741Z,34.13
2024-03-14T05:21:39.874Z,29.65
2024-03-14T05:24:13.105Z,36.30
2024-03-14T05:26:43.716Z,34.88
2024-03-14T05:29:13.441Z,39.20
2024-03-14T05:31:45.334Z,38.60
2024-03-14T05:34:14.578Z,34.53
2024-03-14T05:36:43.874Z,33.40
2024-03-14T05:39:16.084Z,28.60
2024-03-14T05:41:47.152Z,37.45
2024-03-14T05:44:17.042Z,35.35
2024-03-14T05:46:48.054Z,30.42
2024-03-14T05:49:17.165Z,33.83
2024-03-14T05:51:46.184Z,32.42
2024-03-14T05:54:15.731Z,29.55
2024-03-14T05:56:45.293Z,33.95
2024-03-14T05:59:14.394Z,37.75
2024-03-14T06:01:43.653Z,33.13
2024-03-14T06:04:13.506Z,40.58
2024-03-14T06:06:42.790Z,38.22
2024-03-14T06:09:16.310Z,36.75
2024-03-14T06:11:45.577Z,42.45
2024-03-14T06:14:16.725Z,35.83
2024-03-14T06:16:47.583Z,35.13
2024-03-14T06:19:16.842Z,37.35
2024-03-14T06:21:48.659Z,36.33
2024-03-14T06:24:19.116Z,39.28
2024-03-14T06:26:50.088Z,35.85
2024-03-14T06:29:19.476Z,40.97
2024-03-14T06:31:48.731Z,43.03
2024-03-14T06:34:18.339Z,32.17
2024-03-14T06:36:47.522Z,40.55
2024-03-14T06:39:18.801Z,36.22
2024-03-14T06:41:48.146Z,36.22
2024-03-14T06:44:18.664Z,34.22
2024-03-14T06:46:47.885Z,39.35
2024-03-14T06:49:17.439Z,29.15
2024-03-14T06:51:46.639Z,27.60
2024-03-14T06:54:16.028Z,30.38
2024-03-14T06:56:45.285Z,32.42
2024-03-14T06:59:15.222Z,32.25
2024-03-14T07:01:48.328Z,28.25
2024-03-14T07:04:17.743Z,30.05
2024-03-14T07:06:47.821Z,31.83
2024-03-14T07:09:19.507Z,29.38
2024-03-14T07:11:49.283Z,25.92
2024-03-14T07:14:18.786Z,26.00
2024-03-14T07:16:48.161Z,23.15
2024-03-14T07:19:19.440Z,24.55
2024-03-14T07:21:51.295Z,25.77
2024-03-14T07:24:22.774Z,28.95
2024-03-14T07:26:56.912Z,21.75
2024-03-14T07:29:27.124Z,23.45
2024-03-14T07:31:57.192Z,25.67
2024-03-14T07:34:26.844Z,29.80
2024-03-14T07:36:57.509Z,25.17
2024-03-14T07:39:31.082Z,28.45
2024-03-14T07:42:00.898Z,27.33
2024-03-14T07:44:33.552Z,23.92
2024-03-14T07:47:06.210Z,24.70
2024-03-14T07:49:36.979Z,28.55
2024-03-14T07:52:07.104Z,25.63
2024-03-14T07:54:38.355Z,23.75
2024-03-14T07:57:07.751Z,24.67
2024-03-14T07:59:37.012Z,26.88
2024-03-14T08:02:08.735Z,24.33
2024-03-14T08:04:40.152Z,23.92
2024-03-14T08:07:15.193Z,25.10
2024-03-14T08:09:44.507Z,22.00
2024-03-14T08:12:15.452Z,23.52
2024-03-14T08:14:46.390Z,22.90
2024-03-14T08:17:16.033Z,21.42
2024-03-14T08:19:45.657Z,21.73
2024-03-14T08:22:16.177Z,27.17
2024-03-14T08:24:48.898Z,21.60
2024-03-14T08:27:18.211Z,25.77
2024-03-14T08:29:48.235Z,22.95
2024-03-14T08:32:17.781Z,26.30
2024-03-14T08:34:47.234Z,23.77
2024-03-14T08:37:16.629Z,25.67
2024-03-14T08:39:45.879Z,24.70
2024-03-14T08:42:24.870Z,27.80
2024-03-14T08:44:56.437Z,20.23
2024-03-14T08:47:26.789Z,25.52
2024-03-14T08:49:56.152Z,27.77
2024-03-14T08:52:28.100Z,19.02
2024-03-14T08:54:59.658Z,24.20
2024-03-14T08:57:28.829Z,21.65
2024-03-14T09:00:00.207Z,21.92
2024-03-14T09:02:29.917Z,24.27
2024-03-14T09:04:59.471Z,29.17
2024-03-14T09:07:29.333Z,22.70
2024-03-14T09:09:58.708Z,22.45
2024-03-14T09:12:28.878Z,21.02
2024-03-14T09:14:58.101Z,22.50
2024-03-14T09:17:28.680Z,23.65
2024-03-14T09:19:58.186Z,20.73
2024-03-14T09:22:28.203Z,20.92
2024-03-14T09:25:02.523Z,25.83
2024-03-14T09:27:35.062Z,19.05
2024-03-14T09:30:09.768Z,22.52
2024-03-14T09:32:39.057Z,21.55
2024-03-14T09:35:08.834Z,19.80
2024-03-14T09:37:38.251Z,18.42
2024-03-14T09:40:08.348Z,17.27
2024-03-14T09:42:39.228Z,17.75
2024-03-14T09:45:14.298Z,11.48
2024-03-14T09:48:02.597Z,10.75
2024-03-14T09:50:33.087Z,14.50
2024-03-14T09:53:06.745Z,13.90
2024-03-14T09:55:37.671Z,18.80
2024-03-14T09:58:07.393Z,13.90
2024-03-14T10:00:37.481Z,14.48
2024-03-14T10:03:07.147Z,15.07
2024-03-14T10:05:37.045Z,9.13
2024-03-14T10:08:06.834Z,12.43
2024-03-14T10:10:47.097Z,9.25
2024-03-14T10:13:19.096Z,12.32
2024-03-14T10:15:51.071Z,12.93
2024-03-14T10:18:20.976Z,11.15
2024-03-14T10:20:50.239Z,11.30
2024-03-14T10:23:19.849Z,10.27
2024-03-14T10:25:59.520Z,16.17
2024-03-14T10:33:02.987Z,13.30
2024-03-14T10:35:34.358Z,13.77
2024-03-14T10:38:03.518Z,14.43
2024-03-14T10:40:32.731Z,9.27
2024-03-14T10:43:05.416Z,11.18
2024-03-14T10:45:34.653Z,12.52
2024-03-14T10:48:04.714Z,16.35
2024-03-14T10:50:35.275Z,10.90
2024-03-14T10:53:07.024Z,10.68
2024-03-14T10:55:36.884Z,11.77
2024-03-14T10:58:06.874Z,15.93
2024-03-14T11:00:36.599Z,12.70
2024-03-14T11:03:06.022Z,16.52
2024-03-14T11:05:35.164Z,12.25
2024-03-14T11:08:04.660Z,13.30
2024-03-14T11:10:33.992Z,9.85
2024-03-14T11:13:03.510Z,13.57
2024-03-14T11:15:32.841Z,11.50
2024-03-14T11:18:02.108Z,16.58
2024-03-14T11:20:34.110Z,11.43
2024-03-14T11:23:04.524Z,11.15
2024-03-14T11:25:33.977Z,12.98
2024-03-14T11:28:03.072Z,9.35
2024-03-14T11:30:34.207Z,17.20
2024-03-14T11:33:09.038Z,10.35
2024-03-14T11:35:45.385Z,12.85
2024-03-14T11:38:30.918Z,10.93
2024-03-14T11:41:03.246Z,14.02
2024-03-14T11:43:35.574Z,11.00
2024-03-14T11:46:06.614Z,12.60
2024-03-14T11:48:36.029Z,17.70
2024-03-14T11:51:05.591Z,10.02
2024-03-14T11:56:21.720Z,9.50
2024-03-14T11:58:52.495Z,11.93
2024-03-14T12:01:27.932Z,12.10
2024-03-14T12:04:01.842Z,11.55
2024-03-14T12:06:32.697Z,9.15
2024-03-14T12:09:01.817Z,11.35
2024-03-14T12:11:33.012Z,11.02
2024-03-14T12:14:02.293Z,11.55
2024-03-14T12:16:31.419Z,9.18
2024-03-14T12:19:02.570Z,13.00
2024-03-14T12:21:31.881Z,10.80
2024-03-14T12:24:01.174Z,10.60
2024-03-14T12:26:32.575Z,9.32
2024-03-14T12:29:03.444Z,8.25
2024-03-14T12:31:32.604Z,8.00
2024-03-14T12:34:02.208Z,8.50
2024-03-14T12:36:32.601Z,8.60
2024-03-14T12:39:03.044Z,7.22
2024-03-14T12:41:35.501Z,8.13
2024-03-14T12:44:05.060Z,7.78
2024-03-14T12:46:34.528Z,8.32
2024-03-14T12:49:04.963Z,8.98
2024-03-14T12:51:34.249Z,10.32
2024-03-14T12:56:54.977Z,8.65
2024-03-14T12:59:30.965Z,10.07
2024-03-14T13:02:07.554Z,8.07
2024-03-14T13:04:41.852Z,10.82
2024-03-14T13:07:20.091Z,5.00
2024-03-14T13:10:11.516Z,7.85
2024-03-14T13:12:42.006Z,8.35
2024-03-14T13:15:16.020Z,6.78
2024-03-14T13:17:49.557Z,9.45
2024-03-14T13:20:20.206Z,9.85
2024-03-14T13:22:50.154Z,6.53
2024-03-14T13:25:19.545Z,7.93
2024-03-14T13:27:49.848Z,7.93
2024-03-14T13:30:21.415Z,5.13
2024-03-14T13:32:58.079Z,7.07
2024-03-14T13:35:29.055Z,6.85
2024-03-14T13:37:59.164Z,10.20
2024-03-14T13:40:29.922Z,9.80
2024-03-14T13:42:59.412Z,7.55
2024-03-14T13:45:30.099Z,8.13
2024-03-14T13:48:00.536Z,8.55
2024-03-14T13:50:31.383Z,5.45
2024-03-14T13:53:00.719Z,8.15
2024-03-14T13:55:35.616Z,7.78
2024-03-14T13:58:07.860Z,7.95
2024-03-14T14:00:48.531Z,7.35
2024-03-14T14:03:20.796Z,7.20
2024-03-14T14:05:51.023Z,7.68
2024-03-14T14:08:21.417Z,7.53
2024-03-14T14:10:51.771Z,8.23
2024-03-14T14:13:22.002Z,9.07
2024-03-14T14:15:51.472Z,9.95
2024-03-14T14:18:21.033Z,7.57
2024-03-14T14:20:51.057Z,8.32
2024-03-14T14:23:20.785Z,8.90
2024-03-14T14:25:49.905Z,8.82
2024-03-14T14:28:19.150Z,8.18
2024-03-14T14:30:48.672Z,8.52
2024-03-14T14:33:18.117Z,8.52
2024-03-14T14:35:47.519Z,10.70
2024-03-14T14:38:17.153Z,8.18
2024-03-14T14:40:46.715Z,6.97
2024-03-14T14:43:18.170Z,6.07
2024-03-14T14:45:48.056Z,7.88
2024-03-14T14:48:17.384Z,8.25
2024-03-14T14:50:46.609Z,8.15
2024-03-14T14:53:18.144Z,8.95
2024-03-14T14:55:47.445Z,9.98
2024-03-14T14:58:18.808Z,8.57
2024-03-14T15:00:49.214Z,7.57
2024-03-14T15:03:19.466Z,7.05
2024-03-14T15:05:49.405Z,9.98
2024-03-14T15:08:22.500Z,9.38
2024-03-14T15:10:53.844Z,7.57
2024-03-14T15:13:34.285Z,6.38
2024-03-14T15:16:09.189Z,9.68
2024-03-14T15:18:40.036Z,11.45
2024-03-14T15:21:10.217Z,7.57
2024-03-14T15:23:39.853Z,8.30
2024-03-14T15:26:12.930Z,7.97
2024-03-14T15:28:44.715Z,10.35
2024-03-14T15:31:15.438Z,8.90
2024-03-14T15:33:45.603Z,9.43
2024-03-14T15:36:18.805Z,6.88
2024-03-14T15:38:49.695Z,6.85
2024-03-14T15:41:19.343Z,12.82
2024-03-14T15:43:48.578Z,10.40
2024-03-14T15:46:19.847Z,9.20
2024-03-14T15:48:49.105Z,10.65
2024-03-14T15:51:18.799Z,10.38
2024-03-14T15:53:51.031Z,10.45
2024-03-14T15:56:20.280Z,11.07
2024-03-14T15:58:49.533Z,7.78
2024-03-14T16:01:18.945Z,11.25
2024-03-14T16:03:49.994Z,9.23
2024-03-14T16:06:19.437Z,6.70
2024-03-14T16:08:55.307Z,7.57
2024-03-14T16:11:27.990Z,10.60
2024-03-14T16:13:58.054Z,10.65
2024-03-14T16:16:28.146Z,11.70
2024-03-14T16:18:58.105Z,11.05
2024-03-14T16:21:27.554Z,10.05
2024-03-14T16:23:56.843Z,11.23
2024-03-14T16:26:25.962Z,11.60
2024-03-14T16:28:55.730Z,8.77
2024-03-14T16:31:25.853Z,10.88
2024-03-14T16:33:56.667Z,10.48
2024-03-14T16:36:26.471Z,12.30
2024-03-14T16:38:56.064Z,9.48
2024-03-14T16:41:25.952Z,9.88
2024-03-14T16:43:55.197Z,8.77
2024-03-14T16:46:27.176Z,9.10
2024-03-14T16:48:58.495Z,13.95
2024-03-14T16:51:27.769Z,10.90
2024-03-14T16:53:57.540Z,15.98
2024-03-14T16:59:13.751Z,12.35
2024-03-14T17:01:44.474Z,11.65
2024-03-14T17:04:13.862Z,12.20
2024-03-14T17:06:43.120Z,14.93
2024-03-14T17:09:14.786Z,12.13
2024-03-14T17:11:44.261Z,12.15
2024-03-14T17:14:13.498Z,12.20
2024-03-14T17:16:43.677Z,12.13
2024-03-14T17:19:13.410Z,11.00
2024-03-14T17:21:46.061Z,16.50
2024-03-14T17:24:16.524Z,16.52
2024-03-14T17:26:45.912Z,15.73
2024-03-14T17:29:16.362Z,12.55
2024-03-14T17:31:45.882Z,12.60
2024-03-14T17:34:15.063Z,15.30
2024-03-14T17:39:32.487Z,11.30
2024-03-14T17:42:02.463Z,17.70
2024-03-14T17:44:32.330Z,16.63
2024-03-14T17:47:02.037Z,16.73
2024-03-14T17:49:31.485Z,15.32
2024-03-14T17:52:01.036Z,15.27
2024-03-14T17:54:30.566Z,18.25
2024-03-14T17:57:02.152Z,17.48
2024-03-14T17:59:32.126Z,12.68
2024-03-14T18:02:05.675Z,14.50
2024-03-14T18:04:35.260Z,15.40
2024-03-14T18:07:05.481Z,16.30
2024-03-14T18:09:34.798Z,16.42
2024-03-14T18:12:04.665Z,18.88
2024-03-14T18:14:36.109Z,14.73
2024-03-14T18:17:05.447Z,14.65
2024-03-14T18:19:34.656Z,14.13
2024-03-14T18:22:04.645Z,15.55
2024-03-14T18:24:34.354Z,19.25
2024-03-14T18:27:03.624Z,19.25
2024-03-14T18:29:32.837Z,19.73
2024-03-14T18:32:01.994Z,16.73
2024-03-14T18:34:31.345Z,18.95
2024-03-14T18:37:00.491Z,15.48
2024-03-14T18:39:30.982Z,20.52
2024-03-14T18:42:06.187Z,17.15
2024-03-14T18:47:04.947Z,16.38
2024-03-14T18:52:20.654Z,15.88
2024-03-14T18:54:50.251Z,19.50
2024-03-14T18:57:19.766Z,14.85
2024-03-14T18:59:49.248Z,17.83
2024-03-14T19:02:21.875Z,18.90
2024-03-14T19:04:52.744Z,14.60
2024-03-14T19:07:22.029Z,15.75
2024-03-14T19:09:51.213Z,17.73
2024-03-14T19:12:21.045Z,16.55
2024-03-14T19:14:50.519Z,14.77
2024-03-14T19:17:22.587Z,18.17
2024-03-14T19:19:52.620Z,20.65
2024-03-14T19:22:22.683Z,20.25
2024-03-14T19:24:52.085Z,17.38
2024-03-14T19:27:21.527Z,18.30
2024-03-14T19:29:52.107Z,17.23
2024-03-14T19:32:21.420Z,22.30
2024-03-14T19:34:50.763Z,19.98
2024-03-14T19:37:21.345Z,23.30
2024-03-14T19:39:51.815Z,16.77
2024-03-14T19:42:21.738Z,22.20
2024-03-14T19:44:50.901Z,18.48
2024-03-14T19:47:20.118Z,18.58
2024-03-14T19:49:49.448Z,22.17
2024-03-14T19:52:18.565Z,20.33
2024-03-14T19:54:47.739Z,18.75
2024-03-14T19:57:16.882Z,18.02
2024-03-14T19:59:46.664Z,17.45
2024-03-14T20:02:16.633Z,18.80
2024-03-14T20:04:47.434Z,20.25
2024-03-14T20:07:17.328Z,22.38
2024-03-14T20:09:47.090Z,20.60
2024-03-14T20:12:16.394Z,24.27
2024-03-14T20:14:45.663Z,20.60
2024-03-14T20:17:15.945Z,22.27
2024-03-14T20:19:45.817Z,25.50
2024-03-14T20:22:15.937Z,25.55
2024-03-14T20:24:45.348Z,22.30
2024-03-14T20:27:14.800Z,15.23
2024-03-14T20:29:45.417Z,19.75
2024-03-14T20:32:15.234Z,20.95
2024-03-14T20:34:48.652Z,19.75
2024-03-14T20:37:18.745Z,17.58
2024-03-14T20:40:00.789Z,17.83
2024-03-14T20:42:35.516Z,17.13
2024-03-14T20:45:50.308Z,18.55
2024-03-14T20:48:20.252Z,14.43
2024-03-14T20:50:49.699Z,17.67
2024-03-14T20:53:19.546Z,15.60
2024-03-14T20:55:55.325Z,16.90
2024-03-14T20:58:27.833Z,15.93
2024-03-14T21:00:57.008Z,16.67
2024-03-14T21:03:26.406Z,19.65
2024-03-14T21:05:55.558Z,22.67
2024-03-14T21:08:24.901Z,22.65
2024-03-14T21:10:56.174Z,19.50
2024-03-14T21:13:29.397Z,18.52
2024-03-14T21:15:59.119Z,25.15
2024-03-14T21:18:29.229Z,18.67
2024-03-14T21:20:58.466Z,18.35
2024-03-14T21:23:29.463Z,14.23
2024-03-14T21:25:58.805Z,14.48
2024-03-14T21:28:27.858Z,19.67
2024-03-14T21:30:57.519Z,17.92
2024-03-14T21:33:26.688Z,17.73
2024-03-14T21:35:55.780Z,21.00
2024-03-14T21:38:25.406Z,18.45
2024-03-14T21:40:55.430Z,17.25
2024-03-14T21:43:24.973Z,16.98
2024-03-14T21:45:54.459Z,20.75
2024-03-14T21:48:24.938Z,19.25
2024-03-14T21:50:54.244Z,20.08
2024-03-14T21:53:24.132Z,16.33
2024-03-14T21:55:53.194Z,18.48
2024-03-14T21:58:22.317Z,19.17
2024-03-14T22:00:51.600Z,18.02
2024-03-14T22:03:20.834Z,16.08
2024-03-14T22:05:50.181Z,19.02
2024-03-14T22:08:20.875Z,16.67
2024-03-14T22:10:49.899Z,19.73
2024-03-14T22:13:18.967Z,17.92
2024-03-14T22:15:48.504Z,17.25
2024-03-14T22:18:19.434Z,19.65
2024-03-14T22:20:49.172Z,22.27
2024-03-14T22:23:18.386Z,18.70
2024-03-14T22:25:46.408Z,22.02
2024-03-14T22:28:15.932Z,16.52
2024-03-14T22:30:50.262Z,15.68
2024-03-14T22:33:25.143Z,17.92
2024-03-14T22:35:54.407Z,20.38
2024-03-14T22:38:23.836Z,18.33
2024-03-14T22:40:52.896Z,21.90
2024-03-14T22:43:22.167Z,19.98
2024-03-14T22:45:51.646Z,19.63
2024-03-14T22:48:21.004Z,17.42
2024-03-14T22:50:50.489Z,17.17
2024-03-14T22:53:19.555Z,19.95
2024-03-14T22:55:49.025Z,18.88
2024-03-14T22:58:18.068Z,18.20
2024-03-14T23:00:49.094Z,18.52
2024-03-14T23:03:18.627Z,18.95
2024-03-14T23:05:47.803Z,21.27
2024-03-14T23:08:17.661Z,21.35
2024-03-14T23:10:47.771Z,18.48
2024-03-14T23:13:19.227Z,23.58
2024-03-14T23:15:49.390Z,20.10
2024-03-14T23:18:18.798Z,20.80
2024-03-14T23:20:48.181Z,16.17
2024-03-14T23:23:18.958Z,20.27
2024-03-14T23:25:48.411Z,22.23
2024-03-14T23:28:18.833Z,19.10
2024-03-14T23:30:50.645Z,20.08
2024-03-14T23:33:20.655Z,26.00
2024-03-14T23:35:49.779Z,21.30
2024-03-14T23:38:19.713Z,21.65
2024-03-14T23:40:49.165Z,20.17
2024-03-14T23:43:18.210Z,18.10
2024-03-14T23:45:47.468Z,26.08
2024-03-14T23:48:16.765Z,24.75
2024-03-14T23:50:45.929Z,22.35
2024-03-14T23:53:15.602Z,21.33
2024-03-14T23:55:44.799Z,24.30
2024-03-14T23:58:13.997Z,22.55
